createdAt,value
2024-04-06T04:15:25.331Z,0.00
2024-04-06T04:16:25.420Z,0.00
2024-04-06T04:17:25.617Z,0.00
2024-04-06T04:18:25.782Z,0.00
2024-04-06T04:19:25.817Z,0.00
2024-04-06T04:20:25.937Z,0.00
2024-04-06T04:21:26.057Z,0.00
2024-04-06T04:22:29.263Z,0.00
2024-04-06T04:23:26.295Z,0.00
2024-04-06T04:24:26.400Z,0.00
2024-04-06T04:25:26.539Z,0.00
2024-04-06T04:26:26.616Z,0.00
2024-04-06T04:27:26.843Z,0.00
2024-04-06T04:28:26.905Z,0.00
2024-04-06T04:29:27.046Z,0.00
2024-04-06T04:30:27.128Z,0.00
2024-04-06T04:31:27.232Z,0.00
2024-04-06T04:32:27.371Z,0.00
2024-04-06T04:33:27.503Z,0.00
2024-04-06T04:34:27.595Z,1.00
2024-04-06T04:35:27.691Z,1.00
2024-04-06T04:36:27.801Z,1.00
2024-04-06T04:37:27.942Z,1.00
2024-04-06T04:38:28.153Z,2.00
2024-04-06T04:39:28.168Z,3.00
2024-04-06T04:40:28.387Z,2.00
2024-04-06T04:41:28.438Z,3.00
2024-04-06T04:42:28.558Z,4.00
2024-04-06T04:43:28.708Z,5.00
2024-04-06T04:44:38.376Z,5.00
2024-04-06T04:45:29.937Z,7.00
2024-04-06T04:46:29.042Z,7.00
2024-04-06T04:47:29.214Z,7.00
2024-04-06T04:48:29.314Z,7.00
2024-04-06T04:49:29.439Z,8.00
2024-04-06T04:50:29.603Z,10.00
2024-04-06T04:51:29.693Z,12.00
2024-04-06T04:52:29.832Z,14.00
2024-04-06T04:53:29.984Z,14.00
2024-04-06T04:54:30.103Z,17.00
2024-04-06T04:55:30.231Z,18.00
2024-04-06T04:56:30.391Z,19.00
2024-04-06T04:57:30.472Z,21.00
2024-04-06T04:58:30.595Z,21.00
2024-04-06T04:59:30.792Z,23.00
2024-04-06T05:00:30.915Z,25.00
2024-04-06T05:01:31.071Z,29.00
2024-04-06T05:02:31.205Z,36.00
2024-04-06T05:03:31.336Z,36.00
2024-04-06T05:04:31.470Z,36.00
2024-04-06T05:05:31.642Z,37.00
2024-04-06T05:06:31.708Z,37.00
2024-04-06T05:07:31.843Z,38.00
2024-04-06T05:08:32.664Z,39.00
2024-04-06T05:09:32.128Z,42.00
2024-04-06T05:10:32.214Z,45.00
2024-04-06T05:11:32.369Z,47.00
2024-04-06T05:12:32.516Z,48.00
2024-04-06T05:13:32.608Z,51.00
2024-04-06T05:14:32.771Z,53.00
2024-04-06T05:15:32.843Z,54.00
2024-04-06T05:16:32.957Z,59.00
2024-04-06T05:17:33.139Z,59.00
2024-04-06T05:18:33.217Z,62.00
2024-04-06T05:19:33.347Z,65.00
2024-04-06T05:20:34.496Z,67.00
2024-04-06T05:21:33.654Z,69.00
2024-04-06T05:22:35.791Z,71.00
2024-04-06T05:23:33.980Z,72.00
2024-04-06T05:24:34.036Z,74.00
2024-04-06T05:25:35.164Z,76.00
2024-04-06T05:26:34.375Z,80.00
2024-04-06T05:27:34.460Z,81.00
2024-04-06T05:28:34.596Z,82.00
2024-04-06T05:29:34.740Z,83.00
2024-04-06T05:30:34.860Z,85.00
2024-04-06T05:31:35.015Z,87.00
2024-04-06T05:32:35.175Z,87.00
2024-04-06T05:33:35.282Z,89.00
2024-04-06T05:34:35.385Z,92.00
2024-04-06T05:35:35.537Z,95.00
2024-04-06T05:36:35.667Z,97.00
2024-04-06T05:37:35.791Z,103.00
2024-04-06T05:38:35.967Z,107.00
2024-04-06T05:39:36.075Z,110.00
2024-04-06T05:40:36.200Z,116.00
2024-04-06T05:41:36.404Z,118.00
2024-04-06T05:42:36.455Z,118.00
2024-04-06T05:43:36.571Z,118.00
2024-04-06T05:44:36.751Z,122.00
2024-04-06T05:45:37.786Z,128.00
2024-04-06T05:46:37.008Z,134.00
2024-04-06T05:47:37.132Z,133.00
2024-04-06T05:48:37.286Z,149.00
2024-04-06T05:49:37.404Z,168.00
2024-04-06T05:50:37.666Z,175.00
2024-04-06T05:51:37.661Z,178.00
2024-04-06T05:52:37.805Z,181.00
2024-04-06T05:53:37.909Z,189.00
2024-04-06T05:54:38.040Z,200.00
2024-04-06T05:55:38.165Z,204.00
2024-04-06T05:56:38.354Z,211.00
2024-04-06T05:57:38.401Z,223.00
2024-04-06T05:58:38.520Z,233.00
2024-04-06T05:59:38.682Z,236.00
2024-04-06T06:00:38.800Z,235.00
2024-04-06T06:01:38.931Z,244.00
2024-04-06T06:02:39.177Z,248.00
2024-04-06T06:03:39.196Z,244.00
2024-04-06T06:04:39.317Z,247.00
2024-04-06T06:05:39.479Z,254.00
2024-04-06T06:06:39.583Z,269.00
2024-04-06T06:07:39.717Z,268.00
2024-04-06T06:08:39.876Z,274.00
2024-04-06T06:09:39.983Z,277.00
2024-04-06T06:10:40.209Z,278.00
2024-04-06T06:11:40.324Z,283.00
2024-04-06T06:12:40.396Z,287.00
2024-04-06T06:13:40.500Z,292.00
2024-04-06T06:14:40.734Z,296.00
2024-04-06T06:15:40.774Z,319.00
2024-04-06T06:16:40.931Z,253.00
2024-04-06T06:17:42.032Z,296.00
2024-04-06T06:18:41.202Z,301.00
2024-04-06T06:19:41.361Z,286.00
2024-04-06T06:20:41.502Z,288.00
2024-04-06T06:21:44.704Z,269.00
2024-04-06T06:22:41.938Z,322.00
2024-04-06T06:23:41.805Z,263.00
2024-04-06T06:24:41.928Z,267.00
2024-04-06T06:25:43.000Z,259.00
2024-04-06T06:26:42.164Z,312.00
2024-04-06T06:27:44.620Z,270.00
2024-04-06T06:28:42.396Z,303.00
2024-04-06T06:29:42.542Z,327.00
2024-04-06T06:30:42.665Z,346.00
2024-04-06T06:31:42.820Z,380.00
2024-04-06T06:32:42.980Z,363.00
2024-04-06T06:33:43.050Z,340.00
2024-04-06T06:34:43.164Z,381.00
2024-04-06T06:40:43.902Z,436.00
2024-04-06T06:41:44.109Z,417.00
2024-04-06T06:42:44.174Z,414.00
2024-04-06T06:43:44.248Z,411.00
2024-04-06T06:44:44.396Z,415.00
2024-04-06T06:45:44.533Z,427.00
2024-04-06T06:46:44.658Z,411.00
2024-04-06T06:47:45.428Z,409.00
2024-04-06T06:48:44.902Z,442.00
2024-04-06T06:49:45.062Z,447.00
2024-04-06T06:50:45.218Z,437.00
2024-04-06T06:51:45.315Z,410.00
2024-04-06T06:52:45.462Z,402.00
2024-04-06T06:53:45.620Z,391.00
2024-04-06T06:54:45.728Z,449.00
2024-04-06T06:55:45.863Z,503.00
2024-04-06T06:56:46.002Z,519.00
2024-04-06T06:57:46.134Z,551.00
2024-04-06T06:58:46.285Z,567.00
2024-04-06T07:00:46.505Z,622.00
2024-04-06T07:01:46.605Z,460.00
2024-04-06T07:02:46.729Z,424.00
2024-04-06T07:03:46.838Z,421.00
2024-04-06T07:04:47.011Z,403.00
2024-04-06T07:05:47.134Z,394.00
2024-04-06T07:07:47.372Z,420.00
2024-04-06T07:09:02.455Z,414.00
2024-04-06T07:09:48.622Z,405.00
2024-04-06T07:10:47.749Z,416.00
2024-04-06T07:11:47.882Z,422.00
2024-04-06T07:12:48.023Z,424.00
2024-04-06T07:13:48.153Z,425.00
2024-04-06T07:14:48.284Z,432.00
2024-04-06T07:15:48.423Z,430.00
2024-04-06T07:16:48.585Z,443.00
2024-04-06T07:17:48.696Z,439.00
2024-04-06T07:18:48.817Z,437.00
2024-04-06T07:19:48.947Z,443.00
2024-04-06T07:20:49.090Z,457.00
2024-04-06T07:21:49.202Z,473.00
2024-04-06T07:22:49.336Z,497.00
2024-04-06T07:23:49.510Z,518.00
2024-04-06T07:24:49.632Z,510.00
2024-04-06T07:25:49.793Z,502.00
2024-04-06T07:26:49.949Z,505.00
2024-04-06T07:27:50.068Z,489.00
2024-04-06T07:28:50.267Z,484.00
2024-04-06T07:29:50.372Z,512.00
2024-04-06T07:30:50.523Z,543.00
2024-04-06T07:31:50.607Z,548.00
2024-04-06T07:32:53.544Z,576.00
2024-04-06T07:33:50.855Z,573.00
2024-04-06T07:34:50.980Z,614.00
2024-04-06T07:35:51.096Z,606.00
2024-04-06T07:36:51.250Z,596.00
2024-04-06T07:37:51.369Z,584.00
2024-04-06T07:39:51.668Z,595.00
2024-04-06T07:40:51.792Z,601.00
2024-04-06T07:41:51.918Z,611.00
2024-04-06T07:42:52.063Z,582.00
2024-04-06T07:43:52.148Z,564.00
2024-04-06T07:44:52.307Z,546.00
2024-04-06T07:45:52.451Z,533.00
2024-04-06T07:46:52.581Z,530.00
2024-04-06T07:47:52.682Z,530.00
2024-04-06T07:48:52.798Z,498.00
2024-04-06T07:49:53.011Z,447.00
2024-04-06T07:50:53.120Z,434.00
2024-04-06T07:51:53.246Z,461.00
2024-04-06T07:52:56.583Z,593.00
2024-04-06T07:53:53.564Z,471.00
2024-04-06T07:54:53.635Z,474.00
2024-04-06T07:55:53.764Z,490.00
2024-04-06T07:56:53.918Z,445.00
2024-04-06T07:57:54.056Z,572.00
2024-04-06T07:58:54.199Z,592.00
2024-04-06T07:59:54.818Z,517.00
2024-04-06T08:00:54.458Z,409.00
2024-04-06T08:01:54.587Z,636.00
2024-04-06T08:02:54.722Z,746.00
2024-04-06T08:03:54.859Z,723.00
2024-04-06T08:04:55.011Z,703.00
2024-04-06T08:05:55.570Z,758.00
2024-04-06T08:06:55.308Z,639.00
2024-04-06T08:07:55.437Z,516.00
2024-04-06T08:08:55.554Z,470.00
2024-04-06T08:09:55.692Z,602.00
2024-04-06T08:10:56.004Z,602.00
2024-04-06T08:11:55.984Z,629.00
2024-04-06T08:12:57.024Z,732.00
2024-04-06T08:13:56.230Z,747.00
2024-04-06T08:14:56.365Z,978.00
2024-04-06T08:15:56.492Z,749.00
2024-04-06T08:16:56.643Z,628.00
2024-04-06T08:17:56.755Z,629.00
2024-04-06T08:18:56.873Z,817.00
2024-04-06T08:19:56.996Z,608.00
2024-04-06T08:20:57.110Z,626.00
2024-04-06T08:21:57.252Z,576.00
2024-04-06T08:22:57.398Z,556.00
2024-04-06T08:23:57.525Z,786.00
2024-04-06T08:24:57.663Z,576.00
2024-04-06T08:25:57.807Z,530.00
2024-04-06T08:26:58.845Z,462.00
2024-04-06T08:27:58.038Z,713.00
2024-04-06T08:28:58.174Z,838.00
2024-04-06T08:29:58.297Z,739.00
2024-04-06T08:30:58.444Z,771.00
2024-04-06T08:31:58.565Z,788.00
2024-04-06T08:33:00.987Z,786.00
2024-04-06T08:33:58.919Z,826.00
2024-04-06T08:34:58.937Z,722.00
2024-04-06T08:35:59.102Z,661.00
2024-04-06T08:36:59.183Z,708.00
2024-04-06T08:37:59.318Z,755.00
2024-04-06T08:38:59.423Z,713.00
2024-04-06T08:39:59.634Z,706.00
2024-04-06T08:40:59.697Z,683.00
2024-04-06T08:41:59.808Z,677.00
2024-04-06T08:42:59.944Z,711.00
2024-04-06T08:44:00.073Z,586.00
2024-04-06T08:45:00.199Z,518.00
2024-04-06T08:46:00.367Z,890.00
2024-04-06T08:47:00.499Z,763.00
2024-04-06T08:48:00.606Z,823.00
2024-04-06T08:49:00.663Z,858.00
2024-04-06T08:50:00.803Z,761.00
2024-04-06T08:51:00.911Z,1132.00
2024-04-06T08:52:01.070Z,1066.00
2024-04-06T08:53:01.237Z,928.00
2024-04-06T08:54:01.319Z,889.00
2024-04-06T08:55:01.475Z,1137.00
2024-04-06T08:56:01.580Z,750.00
2024-04-06T08:57:01.700Z,839.00
2024-04-06T08:58:01.864Z,843.00
2024-04-06T08:59:01.999Z,825.00
2024-04-06T09:00:02.123Z,860.00
2024-04-06T09:01:02.244Z,809.00
2024-04-06T09:02:02.382Z,795.00
2024-04-06T09:03:02.546Z,740.00
2024-04-06T09:04:02.676Z,614.00
2024-04-06T09:05:02.837Z,604.00
2024-04-06T09:06:02.937Z,785.00
2024-04-06T09:07:03.059Z,742.00
2024-04-06T09:08:03.181Z,569.00
2024-04-06T09:09:03.339Z,598.00
2024-04-06T09:10:03.456Z,835.00
2024-04-06T09:11:03.576Z,805.00
2024-04-06T09:12:03.697Z,784.00
2024-04-06T09:13:03.817Z,741.00
2024-04-06T09:14:03.993Z,744.00
2024-04-06T09:15:04.068Z,759.00
2024-04-06T09:16:04.192Z,680.00
2024-04-06T09:17:04.330Z,538.00
2024-04-06T09:18:04.443Z,675.00
2024-04-06T09:19:04.578Z,632.00
2024-04-06T09:20:07.022Z,556.00
2024-04-06T09:21:04.871Z,449.00
2024-04-06T09:22:04.978Z,487.00
2024-04-06T09:23:05.091Z,393.00
2024-04-06T09:24:05.235Z,511.00
2024-04-06T09:25:05.362Z,583.00
2024-04-06T09:26:05.513Z,559.00
2024-04-06T09:27:05.626Z,564.00
2024-04-06T09:28:05.745Z,581.00
2024-04-06T09:29:05.916Z,578.00
2024-04-06T09:30:06.054Z,577.00
2024-04-06T09:31:06.195Z,573.00
2024-04-06T09:32:06.310Z,575.00
2024-04-06T09:33:06.443Z,572.00
2024-04-06T09:34:06.568Z,565.00
2024-04-06T09:35:06.707Z,566.00
2024-04-06T09:36:06.838Z,566.00
2024-04-06T09:37:06.964Z,574.00
2024-04-06T09:38:07.073Z,576.00
2024-04-06T09:39:07.423Z,587.00
2024-04-06T09:40:07.425Z,605.00
2024-04-06T09:41:07.412Z,668.00
2024-04-06T09:42:07.576Z,696.00
2024-04-06T09:43:07.678Z,770.00
2024-04-06T09:44:07.815Z,556.00
2024-04-06T09:45:07.947Z,441.00
2024-04-06T09:46:08.108Z,447.00
2024-04-06T09:47:08.190Z,408.00
2024-04-06T09:48:08.321Z,561.00
2024-04-06T09:49:08.435Z,582.00
2024-04-06T09:50:08.590Z,570.00
2024-04-06T09:51:08.742Z,575.00
2024-04-06T09:52:08.911Z,593.00
2024-04-06T09:53:08.999Z,598.00
2024-04-06T09:54:09.133Z,640.00
2024-04-06T09:55:09.386Z,650.00
2024-04-06T09:56:09.370Z,664.00
2024-04-06T09:57:09.472Z,753.00
2024-04-06T09:58:09.667Z,897.00
2024-04-06T09:59:09.772Z,1168.00
2024-04-06T10:00:09.912Z,1291.00
2024-04-06T10:01:10.072Z,1501.00
2024-04-06T10:02:11.133Z,1241.00
2024-04-06T10:03:10.298Z,1167.00
2024-04-06T10:04:10.416Z,1130.00
2024-04-06T10:05:10.545Z,1147.00
2024-04-06T10:06:10.669Z,1088.00
2024-04-06T10:07:10.816Z,883.00
2024-04-06T10:08:10.908Z,787.00
2024-04-06T10:09:11.073Z,597.00
2024-04-06T10:10:11.225Z,628.00
2024-04-06T10:11:11.365Z,619.00
2024-04-06T10:12:11.454Z,894.00
2024-04-06T10:13:11.600Z,891.00
2024-04-06T10:14:11.675Z,1087.00
2024-04-06T10:15:11.845Z,1055.00
2024-04-06T10:16:11.954Z,877.00
2024-04-06T10:17:12.072Z,862.00
2024-04-06T10:18:13.187Z,856.00
2024-04-06T10:29:46.588Z,1285.00
2024-04-06T10:30:46.721Z,1215.00
2024-04-06T10:31:47.823Z,1168.00
2024-04-06T10:32:46.938Z,1038.00
2024-04-06T10:33:47.056Z,1089.00
2024-04-06T10:34:50.901Z,915.00
2024-04-06T10:35:47.331Z,902.00
2024-04-06T10:36:47.444Z,967.00
2024-04-06T10:37:47.563Z,1024.00
2024-04-06T10:38:47.687Z,1330.00
2024-04-06T10:39:47.797Z,980.00
2024-04-06T10:40:47.966Z,1342.00
2024-04-06T10:41:48.072Z,1040.00
2024-04-06T10:42:48.203Z,1116.00
2024-04-06T10:43:48.306Z,1211.00
2024-04-06T10:44:48.467Z,1239.00
2024-04-06T10:45:48.597Z,1346.00
2024-04-06T10:46:48.715Z,1410.00
2024-04-06T10:47:48.848Z,1490.00
2024-04-06T10:48:48.965Z,1350.00
2024-04-06T10:49:49.096Z,1314.00
2024-04-06T10:50:49.253Z,1007.00
2024-04-06T10:51:49.337Z,1403.00
2024-04-06T10:52:49.468Z,1535.00
2024-04-06T10:53:49.616Z,1406.00
2024-04-06T10:54:49.718Z,1416.00
2024-04-06T10:55:49.854Z,1303.00
2024-04-06T10:56:49.988Z,1058.00
2024-04-06T10:57:50.136Z,917.00
2024-04-06T10:58:50.265Z,797.00
2024-04-06T10:59:50.381Z,799.00
2024-04-06T11:00:50.510Z,863.00
2024-04-06T11:01:50.641Z,430.00
2024-04-06T11:02:50.788Z,704.00
2024-04-06T11:03:50.914Z,623.00
2024-04-06T11:04:51.019Z,708.00
2024-04-06T11:05:51.174Z,682.00
2024-04-06T11:06:51.298Z,670.00
2024-04-06T11:07:51.419Z,660.00
2024-04-06T11:08:51.550Z,664.00
2024-04-06T11:09:51.656Z,668.00
2024-04-06T11:10:51.830Z,668.00
2024-04-06T11:11:51.904Z,663.00
2024-04-06T11:12:52.029Z,669.00
2024-04-06T11:13:52.124Z,663.00
2024-04-06T11:14:52.260Z,661.00
2024-04-06T11:15:52.373Z,660.00
2024-04-06T11:16:52.527Z,663.00
2024-04-06T11:17:52.640Z,662.00
2024-04-06T11:18:52.766Z,659.00
2024-04-06T11:19:52.883Z,663.00
2024-04-06T11:20:53.010Z,670.00
2024-04-06T11:21:53.148Z,675.00
2024-04-06T11:22:53.289Z,679.00
2024-04-06T11:23:53.393Z,693.00
2024-04-06T11:24:53.508Z,700.00
2024-04-06T11:25:53.638Z,710.00
2024-04-06T11:26:53.762Z,719.00
2024-04-06T11:27:54.854Z,734.00
2024-04-06T11:28:54.016Z,733.00
2024-04-06T11:29:55.104Z,741.00
2024-04-06T11:30:54.261Z,756.00
2024-04-06T11:31:54.370Z,757.00
2024-04-06T11:32:54.494Z,785.00
2024-04-06T11:33:54.651Z,821.00
2024-04-06T11:34:54.762Z,889.00
2024-04-06T11:35:54.880Z,915.00
2024-04-06T11:36:55.966Z,1038.00
2024-04-06T11:37:55.129Z,1083.00
2024-04-06T11:38:55.265Z,1089.00
2024-04-06T11:39:55.367Z,1120.00
2024-04-06T11:40:55.471Z,1149.00
2024-04-06T11:41:55.593Z,1213.00
2024-04-06T11:42:55.716Z,1170.00
2024-04-06T11:43:55.842Z,1349.00
2024-04-06T11:44:55.963Z,1193.00
2024-04-06T11:45:56.119Z,1237.00
2024-04-06T11:46:56.257Z,1275.00
2024-04-06T11:47:56.387Z,1436.00
2024-04-06T11:48:56.520Z,1641.00
2024-04-06T11:49:56.640Z,1725.00
2024-04-06T11:50:56.777Z,1727.00
2024-04-06T11:51:56.907Z,1719.00
2024-04-06T11:52:57.054Z,1605.00
2024-04-06T11:53:57.152Z,1596.00
2024-04-06T11:54:57.282Z,1582.00
2024-04-06T11:55:57.385Z,1578.00
2024-04-06T11:56:57.499Z,1590.00
2024-04-06T11:57:57.658Z,1612.00
2024-04-06T11:58:57.778Z,1668.00
2024-04-06T11:59:57.924Z,1687.00
2024-04-06T12:00:58.032Z,1714.00
2024-04-06T12:01:58.182Z,1722.00
2024-04-06T12:02:58.295Z,1765.00
2024-04-06T12:03:58.407Z,1807.00
2024-04-06T12:04:58.523Z,1843.00
2024-04-06T12:05:59.561Z,1910.00
2024-04-06T12:06:58.748Z,1946.00
2024-04-06T12:07:58.878Z,1964.00
2024-04-06T12:08:59.017Z,1946.00
2024-04-06T12:09:59.132Z,1910.00
2024-04-06T12:10:59.232Z,1877.00
2024-04-06T12:11:59.420Z,1793.00
2024-04-06T12:12:59.509Z,1715.00
2024-04-06T12:13:59.620Z,1617.00
2024-04-06T12:14:59.743Z,1538.00
2024-04-06T12:15:59.851Z,1469.00
2024-04-06T12:16:59.977Z,1442.00
2024-04-06T12:18:00.093Z,1396.00
2024-04-06T12:19:00.232Z,1395.00
2024-04-06T12:20:00.376Z,1371.00
2024-04-06T12:21:00.560Z,1424.00
2024-04-06T12:22:00.614Z,1492.00
2024-04-06T12:23:00.733Z,1587.00
2024-04-06T12:24:00.824Z,1603.00
2024-04-06T12:25:00.970Z,1554.00
2024-04-06T12:26:01.096Z,1438.00
2024-04-06T12:27:01.179Z,1353.00
2024-04-06T12:28:01.293Z,1415.00
2024-04-06T12:29:01.451Z,1587.00
2024-04-06T12:30:02.493Z,1677.00
2024-04-06T12:31:01.610Z,1867.00
2024-04-06T12:32:01.728Z,1985.00
2024-04-06T12:33:01.841Z,2021.00
2024-04-06T12:34:01.989Z,2003.00
2024-04-06T12:35:03.073Z,1801.00
2024-04-06T12:36:02.235Z,1880.00
2024-04-06T12:37:02.338Z,1802.00
2024-04-06T12:38:02.474Z,1583.00
2024-04-06T12:39:02.597Z,1508.00
2024-04-06T12:40:02.706Z,1522.00
2024-04-06T12:41:02.820Z,1749.00
2024-04-06T12:42:02.957Z,2005.00
2024-04-06T12:43:03.059Z,2249.00
2024-04-06T12:44:03.186Z,2438.00
2024-04-06T12:45:04.493Z,2525.00
2024-04-06T12:46:03.420Z,2583.00
2024-04-06T12:47:03.556Z,2789.00
2024-04-06T12:48:03.641Z,2101.00
2024-04-06T12:49:03.812Z,1836.00
2024-04-06T12:50:03.927Z,1893.00
2024-04-06T12:51:06.749Z,1925.00
2024-04-06T12:52:04.176Z,1396.00
2024-04-06T12:53:04.295Z,4086.00
2024-04-06T12:54:04.433Z,5182.00
2024-04-06T12:55:04.540Z,7256.00
2024-04-06T12:56:04.652Z,9147.00
2024-04-06T12:57:04.757Z,7188.00
2024-04-06T12:58:04.914Z,8295.00
2024-04-06T12:59:05.028Z,9074.00
2024-04-06T13:00:05.151Z,8321.00
2024-04-06T13:01:05.248Z,7481.00
2024-04-06T13:02:05.377Z,7496.00
2024-04-06T13:03:05.508Z,7631.00
2024-04-06T13:04:06.087Z,4009.00
2024-04-06T13:05:05.725Z,5217.00
2024-04-06T13:06:05.857Z,7082.00
2024-04-06T13:07:06.015Z,8058.00
2024-04-06T13:08:06.118Z,8445.00
2024-04-06T13:09:06.224Z,5815.00
2024-04-06T13:10:07.304Z,7935.00
2024-04-06T13:11:06.446Z,8710.00
2024-04-06T13:12:06.547Z,8877.00
2024-04-06T13:13:06.704Z,9422.00
2024-04-06T13:14:06.807Z,9595.00
2024-04-06T13:15:06.945Z,7778.00
2024-04-06T13:16:07.040Z,8288.00
2024-04-06T13:17:07.207Z,8072.00
2024-04-06T13:18:07.315Z,9917.00
2024-04-06T13:19:07.422Z,11269.00
2024-04-06T13:20:07.571Z,10924.00
2024-04-06T13:21:07.641Z,12584.00
2024-04-06T13:22:07.896Z,11126.00
2024-04-06T13:23:07.900Z,8371.00
2024-04-06T13:24:08.002Z,9750.00
2024-04-06T13:25:08.125Z,9352.00
2024-04-06T13:26:08.226Z,9145.00
2024-04-06T13:27:08.373Z,8978.00
2024-04-06T13:28:08.496Z,8871.00
2024-04-06T13:29:08.601Z,7898.00
2024-04-06T13:30:08.758Z,5822.00
2024-04-06T13:31:08.817Z,5172.00
2024-04-06T13:32:08.922Z,6620.00
2024-04-06T13:33:09.052Z,6172.00
2024-04-06T13:34:09.147Z,5369.00
2024-04-06T13:35:09.330Z,4105.00
2024-04-06T13:36:09.414Z,3935.00
2024-04-06T13:37:09.544Z,4586.00
2024-04-06T13:38:09.639Z,5062.00
2024-04-06T13:39:09.760Z,4575.00
2024-04-06T13:40:09.924Z,5310.00
2024-04-06T13:41:10.041Z,6179.00
2024-04-06T13:42:10.139Z,5700.00
2024-04-06T13:43:10.250Z,5598.00
2024-04-06T13:44:10.347Z,5821.00
2024-04-06T13:45:10.536Z,5003.00
2024-04-06T13:46:10.601Z,3840.00
2024-04-06T13:47:10.719Z,3772.00
2024-04-06T13:48:10.832Z,4138.00
2024-04-06T13:49:10.932Z,3806.00
2024-04-06T13:50:11.110Z,3366.00
2024-04-06T13:51:11.169Z,3876.00
2024-04-06T13:52:11.266Z,4477.00
2024-04-06T13:53:11.396Z,4493.00
2024-04-06T13:54:11.486Z,4390.00
2024-04-06T13:55:11.648Z,4083.00
2024-04-06T13:56:11.810Z,3209.00
2024-04-06T13:57:11.908Z,2760.00
2024-04-06T13:58:12.021Z,2294.00
2024-04-06T13:59:12.126Z,2242.00
2024-04-06T14:00:12.265Z,2269.00
2024-04-06T14:01:12.369Z,2251.00
2024-04-06T14:02:12.501Z,2082.00
2024-04-06T14:03:12.617Z,2094.00
2024-04-06T14:04:12.720Z,2047.00
2024-04-06T14:05:12.835Z,1957.00
2024-04-06T14:06:12.957Z,1886.00
2024-04-06T14:07:16.016Z,1833.00
2024-04-06T14:08:13.173Z,1754.00
2024-04-06T14:09:13.284Z,1731.00
2024-04-06T14:10:13.449Z,1772.00
2024-04-06T14:11:13.526Z,1696.00
2024-04-06T14:12:13.680Z,1610.00
2024-04-06T14:13:13.779Z,1541.00
2024-04-06T14:14:13.892Z,1466.00
2024-04-06T14:15:14.025Z,1397.00
2024-04-06T14:16:14.135Z,1356.00
2024-04-06T14:17:14.265Z,1381.00
2024-04-06T14:18:14.359Z,1383.00
2024-04-06T14:19:14.468Z,1419.00
2024-04-06T14:20:14.584Z,1427.00
2024-04-06T14:21:14.683Z,1422.00
2024-04-06T14:22:14.820Z,1412.00
2024-04-06T14:23:14.918Z,1384.00
2024-04-06T14:24:15.018Z,1347.00
2024-04-06T14:25:17.598Z,1315.00
2024-04-06T14:26:15.250Z,1261.00
2024-04-06T14:27:15.357Z,1200.00
2024-04-06T14:28:15.472Z,1140.00
2024-04-06T14:29:15.574Z,1114.00
2024-04-06T14:30:15.679Z,1114.00
2024-04-06T14:31:19.104Z,1151.00
2024-04-06T14:32:15.947Z,1184.00
2024-04-06T14:33:16.073Z,1222.00
2024-04-06T14:34:16.214Z,1236.00
2024-04-06T14:35:16.319Z,1241.00
2024-04-06T14:36:16.435Z,1245.00
2024-04-06T14:37:16.541Z,1231.00
2024-04-06T14:38:16.656Z,1233.00
2024-04-06T14:39:16.762Z,1232.00
2024-04-06T14:40:16.882Z,1223.00
2024-04-06T14:41:16.982Z,1209.00
2024-04-06T14:42:17.093Z,1216.00
2024-04-06T14:43:18.771Z,1224.00
2024-04-06T14:44:17.430Z,1249.00
2024-04-06T14:45:17.565Z,1275.00
2024-04-06T14:46:17.675Z,1278.00
2024-04-06T14:47:17.794Z,1283.00
2024-04-06T14:48:17.895Z,1318.00
2024-04-06T14:49:18.040Z,1344.00
2024-04-06T14:50:18.188Z,1355.00
2024-04-06T14:51:18.270Z,1348.00
2024-04-06T14:52:18.412Z,1347.00
2024-04-06T14:53:18.518Z,1340.00
2024-04-06T14:54:18.640Z,1329.00
2024-04-06T14:55:19.254Z,1310.00
2024-04-06T14:56:18.863Z,1315.00
2024-04-06T14:57:19.021Z,1335.00
2024-04-06T14:58:19.143Z,1369.00
2024-04-06T14:59:19.238Z,1395.00
2024-04-06T15:00:19.386Z,1376.00
2024-04-06T15:01:19.489Z,1385.00
2024-04-06T15:02:19.603Z,1401.00
2024-04-06T15:03:19.714Z,1423.00
2024-04-06T15:04:19.847Z,1346.00
2024-04-06T15:05:19.978Z,1317.00
2024-04-06T15:06:20.102Z,1285.00
2024-04-06T15:07:30.687Z,1258.00
2024-04-06T15:08:21.330Z,1209.00
2024-04-06T15:09:20.466Z,1140.00
2024-04-06T15:10:20.613Z,1146.00
2024-04-06T15:11:20.708Z,1140.00
2024-04-06T15:12:20.848Z,1134.00
2024-04-06T15:13:20.994Z,1112.00
2024-04-06T15:14:21.081Z,1095.00
2024-04-06T15:15:21.220Z,1076.00
2024-04-06T15:16:21.366Z,1043.00
2024-04-06T15:17:21.458Z,994.00
2024-04-06T15:18:21.577Z,975.00
2024-04-06T15:19:21.750Z,963.00
2024-04-06T15:20:21.832Z,961.00
2024-04-06T15:21:21.963Z,962.00
2024-04-06T15:22:22.102Z,947.00
2024-04-06T15:23:22.187Z,959.00
2024-04-06T15:24:22.348Z,974.00
2024-04-06T15:25:22.475Z,955.00
2024-04-06T15:26:22.602Z,928.00
2024-04-06T15:27:22.724Z,890.00
2024-04-06T15:28:22.849Z,867.00
2024-04-06T15:29:22.955Z,853.00
2024-04-06T15:30:23.063Z,813.00
2024-04-06T15:31:23.197Z,751.00
2024-04-06T15:32:23.299Z,690.00
2024-04-06T15:33:23.397Z,636.00
2024-04-06T15:34:23.654Z,600.00
2024-04-06T15:35:23.710Z,593.00
2024-04-06T15:36:23.826Z,616.00
2024-04-06T15:37:23.944Z,633.00
2024-04-06T15:38:24.059Z,651.00
2024-04-06T15:39:24.168Z,660.00
2024-04-06T15:40:24.333Z,656.00
2024-04-06T15:41:24.419Z,632.00
2024-04-06T15:42:24.555Z,608.00
2024-04-06T15:43:24.680Z,568.00
2024-04-06T15:44:24.771Z,537.00
2024-04-06T15:45:24.900Z,489.00
2024-04-06T15:46:25.059Z,460.00
2024-04-06T15:47:25.125Z,455.00
2024-04-06T15:48:25.238Z,473.00
2024-04-06T15:49:25.354Z,488.00
2024-04-06T15:50:25.476Z,492.00
2024-04-06T15:51:25.611Z,491.00
2024-04-06T15:52:25.739Z,507.00
2024-04-06T15:53:25.840Z,538.00
2024-04-06T15:54:25.972Z,565.00
2024-04-06T15:55:26.092Z,581.00
2024-04-06T15:56:26.207Z,594.00
2024-04-06T15:57:26.322Z,616.00
2024-04-06T15:58:26.472Z,626.00
2024-04-06T15:59:26.579Z,635.00
2024-04-06T16:00:26.704Z,596.00
2024-04-06T16:01:26.818Z,554.00
2024-04-06T16:02:26.936Z,543.00
2024-04-06T16:03:27.078Z,535.00
2024-04-06T16:04:27.232Z,534.00
2024-04-06T16:05:27.302Z,554.00
2024-04-06T16:06:27.406Z,587.00
2024-04-06T16:07:27.551Z,612.00
2024-04-06T16:08:27.626Z,605.00
2024-04-06T16:09:27.735Z,592.00
2024-04-06T16:10:27.896Z,580.00
2024-04-06T16:11:27.984Z,580.00
2024-04-06T16:12:28.136Z,581.00
2024-04-06T16:13:28.273Z,579.00
2024-04-06T16:14:28.367Z,585.00
2024-04-06T16:15:28.492Z,583.00
2024-04-06T16:16:28.676Z,584.00
2024-04-06T16:28:57.908Z,376.00
2024-04-06T16:29:57.989Z,365.00
2024-04-06T16:30:58.094Z,346.00
2024-04-06T16:31:58.255Z,335.00
2024-04-06T16:32:58.403Z,329.00
2024-04-06T16:33:58.549Z,318.00
2024-04-06T16:34:58.672Z,311.00
2024-04-06T16:35:58.774Z,305.00
2024-04-06T16:36:58.891Z,303.00
2024-04-06T16:37:59.005Z,300.00
2024-04-06T16:38:59.164Z,293.00
2024-04-06T16:39:59.309Z,295.00
2024-04-06T16:40:59.416Z,301.00
2024-04-06T16:41:59.538Z,310.00
2024-04-06T16:42:59.663Z,322.00
2024-04-06T16:43:59.771Z,329.00
2024-04-06T16:44:59.918Z,330.00
2024-04-06T16:46:00.076Z,327.00
2024-04-06T16:47:00.150Z,313.00
2024-04-06T16:48:03.939Z,305.00
2024-04-06T16:49:00.396Z,296.00
2024-04-06T16:50:00.542Z,286.00
2024-04-06T16:51:00.654Z,280.00
2024-04-06T16:52:00.758Z,270.00
2024-04-06T16:53:00.898Z,267.00
2024-04-06T16:54:00.992Z,268.00
2024-04-06T16:55:01.150Z,257.00
2024-04-06T16:56:01.245Z,246.00
2024-04-06T16:57:01.352Z,238.00
2024-04-06T16:58:01.472Z,232.00
2024-04-06T16:59:01.595Z,230.00
2024-04-06T17:00:01.774Z,230.00
2024-04-06T17:01:01.896Z,233.00
2024-04-06T17:02:02.014Z,230.00
2024-04-06T17:03:02.138Z,227.00
2024-04-06T17:04:02.235Z,220.00
2024-04-06T17:05:02.402Z,218.00
2024-04-06T17:06:02.475Z,213.00
2024-04-06T17:07:02.608Z,207.00
2024-04-06T17:08:02.693Z,203.00
2024-04-06T17:09:02.823Z,201.00
2024-04-06T17:10:02.961Z,203.00
2024-04-06T17:11:03.113Z,199.00